Latest Weather Observations for Kingaroy

IDQ60801

Issued at 8:02 pm EST Tuesday 1 September 2015 (issued every 30 minutes, with the page automatically refreshed every 10 minutes)

About weather observations | Map of weather stations | Latest weather observations for QLD | Other Formats
Station Details ID: 040922 Name: KINGAROY AIRPORT Lat: -26.57 Lon: 151.84 Height: 433.67 m
Data from the previous 72 hours. | See also: Recent months at Kingaroy
Date/Time
EST
Temp
°C
App
Temp
°C
Dew
Point
Rel
Hum
%
Delta-T
°C
Wind Press
QNH
hPa
Press
MSL
hPa
Rain
since 9 am
mm
Dir
 
Spd
km/h
Gust
km/h
Spd
kts
Gust
kts
01/08:00pm 9.5 7.5 4.3 70 2.4 E 4 6 2 3 1017.8 1016.8 0.0
01/07:30pm 10.5 8.0 3.8 63 3.0 SE 6 7 3 4 1017.5 1016.5 0.0
01/07:00pm 11.6 9.0 4.1 60 3.4 E 7 9 4 5 1017.1 1016.1 0.0
01/06:30pm 13.2 12.1 4.9 57 3.9 CALM 0 4 0 2 1016.7 1015.6 0.0
01/06:00pm 16.1 12.9 0.7 35 6.8 WNW 7 9 4 5 1016.4 1015.3 0.0
01/05:30pm 18.6 15.4 0.7 30 8.1 W 7 9 4 5 1015.9 1014.9 0.0
01/05:00pm 19.9 15.6 0.9 28 8.7 SW 13 20 7 11 1015.7 1014.7 0.0
01/04:30pm 20.7 15.9 0.0 25 9.4 SW 15 22 8 12 1015.6 1014.6 0.0
01/04:00pm 21.2 16.5 -2.0 21 10.2 WSW 13 22 7 12 1015.3 1014.3 0.0
01/03:30pm 21.5 15.6 -2.4 20 10.4 SW 19 28 10 15 1015.3 1014.3 0.0
01/03:00pm 21.9 16.5 -1.4 21 10.4 SW 17 24 9 13 1015.4 1014.4 0.0
01/02:30pm 21.6 16.1 -2.3 20 10.5 W 17 24 9 13 1015.5 1014.5 0.0
01/02:00pm 21.8 15.8 -1.5 21 10.4 WSW 20 28 11 15 1015.7 1014.7 0.0
01/01:30pm 21.6 16.3 -0.4 23 10.0 WSW 17 28 9 15 1015.8 1014.8 0.0
01/01:00pm 21.2 15.3 -2.0 21 10.2 WNW 19 28 10 15 1016.2 1015.2 0.0
01/12:30pm 21.3 16.5 0.5 25 9.6 W 15 24 8 13 1016.7 1015.6 0.0
01/12:00pm 20.3 15.4 -0.3 25 9.3 W 15 26 8 14 1017.0 1016.0 0.0
01/11:30am 20.2 15.8 0.6 27 9.0 NW 13 22 7 12 1017.4 1016.4 0.0
01/11:00am 18.9 15.3 0.5 29 8.3 SW 9 15 5 8 1018.0 1017.0 0.0
01/10:30am 17.8 13.7 2.5 36 7.1 SW 13 17 7 9 1018.5 1017.5 0.0
01/10:00am 16.9 12.6 3.2 40 6.4 WSW 15 26 8 14 1018.8 1017.8 0.0
01/09:30am 14.1 11.2 4.4 52 4.6 S 9 13 5 7 1018.8 1018.5 0.0
01/09:00am 13.1 10.8 5.0 58 3.8 E 6 7 3 4 1019.0 1018.7 0.0
01/08:30am 10.7 9.0 5.9 72 2.3 NW 4 7 2 4 1019.2 1018.9 0.0
01/08:00am 8.3 7.2 5.1 80 1.5 CALM 0 6 0 3 1019.1 1018.8 0.0
01/07:30am 5.0 3.7 4.1 94 0.4 CALM 0 0 0 0 1018.9 1018.6 0.0
01/07:00am 1.8 0.0 1.2 96 0.2 CALM 0 0 0 0 1018.4 1018.1 0.0
01/06:30am 1.2 -0.7 0.5 95 0.3 CALM 0 0 0 0 1018.1 1017.8 0.0
01/06:00am 1.3 -0.6 0.7 96 0.2 CALM 0 0 0 0 1017.8 1017.5 0.0
01/05:30am 1.6 -0.2 1.0 96 0.2 CALM 0 0 0 0 1017.6 1017.3 0.0
01/05:00am 1.6 -0.3 0.7 94 0.3 CALM 0 6 0 3 1017.2 1016.9 0.0
01/04:30am 1.6 -2.0 0.6 93 0.4 S 9 11 5 6 1017.0 1016.7 0.0
01/04:00am 1.9 0.0 0.4 90 0.6 CALM 0 2 0 1 1017.0 1016.7 0.0
01/03:30am 2.8 1.0 1.5 91 0.5 CALM 0 0 0 0 1017.1 1016.8 0.0
01/03:00am 2.8 1.1 1.8 93 0.4 CALM 0 0 0 0 1017.3 1017.0 0.0
01/02:30am 3.0 1.2 1.5 90 0.6 CALM 0 0 0 0 1017.3 1017.0 0.0
01/02:00am 3.4 1.8 2.2 92 0.5 CALM 0 0 0 0 1017.2 1016.9 0.0
01/01:30am 3.9 1.9 2.1 88 0.7 NNW 2 7 1 4 1017.4 1017.1 0.0
01/01:00am 3.8 1.7 2.0 88 0.7 NW 2 6 1 3 1017.5 1017.2 0.0
01/12:30am 4.4 1.1 2.3 86 0.9 S 9 11 5 6 1017.4 1017.1 0.0
01/12:00am 4.7 3.1 2.7 87 0.8 CALM 0 0 0 0 1017.9 1017.6 0.0
 
Date/Time
EST
Temp
°C
App
Temp
°C
Dew
Point
Rel
Hum
%
Delta-T
°C
Wind Press
QNH
hPa
Press
MSL
hPa
Rain
since 9 am
mm
Dir
 
Spd
km/h
Gust
km/h
Spd
kts
Gust
kts
31/11:30pm 5.2 3.7 2.9 85 1.0 CALM 0 0 0 0 1018.0 1017.7 0.0
31/11:00pm 6.0 4.0 2.5 78 1.5 E 2 7 1 4 1018.0 1017.7 0.0
31/10:30pm 6.7 4.3 2.2 73 1.9 NE 4 7 2 4 1018.0 1017.7 0.0
31/10:00pm 6.6 4.6 2.5 75 1.7 ESE 2 7 1 4 1017.9 1017.6 0.0
31/09:30pm 6.7 4.1 3.1 78 1.5 SE 6 7 3 4 1017.9 1017.6 0.0
31/09:00pm 7.7 4.8 2.8 71 2.1 ESE 7 9 4 5 1017.8 1017.5 0.0
31/08:30pm 7.8 5.3 3.5 74 1.9 S 6 7 3 4 1017.6 1017.3 0.0
31/08:00pm 9.4 7.9 3.2 65 2.7 CALM 0 0 0 0 1017.5 1017.2 0.0
31/07:30pm 9.9 7.3 3.4 64 2.9 WSW 6 9 3 5 1017.1 1016.8 0.0
31/07:00pm 11.2 8.1 1.2 50 4.3 SSW 7 9 4 5 1016.8 1016.5 0.0
31/06:30pm 13.6 9.5 -0.4 38 5.9 SW 11 15 6 8 1016.4 1016.0 0.0
31/06:00pm 14.4 10.7 -0.1 37 6.2 WSW 9 11 5 6 1016.2 1015.9 0.0
31/05:30pm 15.8 11.2 -0.8 32 7.1 SW 13 20 7 11 1015.9 1015.6 0.0
31/05:00pm 17.2 11.7 -1.9 27 8.1 WSW 17 24 9 13 1015.6 1015.3 0.0
31/04:30pm 18.0 12.0 -1.3 27 8.4 WSW 20 26 11 14 1015.4 1015.1 0.0
31/04:00pm 18.6 13.3 -0.7 27 8.5 SW 17 28 9 15 1015.1 1014.8 0.0
31/03:30pm 18.5 12.7 -0.3 28 8.3 SW 20 30 11 16 1015.0 1014.7 0.0
31/03:00pm 19.1 13.2 -0.8 26 8.8 SW 20 28 11 15 1015.2 1014.9 0.0
31/02:30pm 19.2 13.2 -1.8 24 9.1 W 20 30 11 16 1015.2 1014.9 0.0
31/02:00pm 19.2 13.2 -1.8 24 9.1 W 20 30 11 16 1015.3 1015.0 0.0
31/01:30pm 19.3 14.1 0.4 28 8.6 W 17 32 9 17 1015.5 1015.2 0.0
31/01:00pm 19.4 15.0 -2.8 22 9.4 W 11 20 6 11 1015.6 1015.3 0.0
31/12:30pm 19.0 14.5 -3.2 22 9.3 W 11 20 6 11 1015.8 1015.5 0.0
31/12:00pm 18.3 14.3 -2.0 25 8.7 NW 9 17 5 9 1015.9 1015.6 0.0
31/11:30am 18.2 14.4 -0.6 28 8.3 SSE 9 20 5 11 1016.4 1016.0 0.0
31/11:00am 17.1 12.6 -0.1 31 7.6 WSW 13 24 7 13 1016.8 1016.5 0.0
31/10:30am 16.9 14.2 2.9 39 6.5 SSW 6 15 3 8 1017.3 1017.0 0.0
31/10:00am 16.2 12.5 2.6 40 6.3 SSW 11 22 6 12 1017.7 1017.4 0.0
31/09:30am 15.1 12.2 4.8 50 4.9 SW 9 17 5 9 1018.0 1017.7 0.0
31/09:00am 13.1 11.6 4.8 57 3.9 WNW 2 7 1 4 1018.1 1017.8 0.0
31/08:30am 10.4 8.1 5.8 73 2.2 WNW 7 11 4 6 1018.1 1017.8 0.0
31/08:00am 8.0 5.7 5.5 84 1.1 NNW 7 9 4 5 1018.0 1017.7 0.0
31/07:30am 5.1 2.5 4.4 95 0.3 NNW 7 9 4 5 1018.0 1017.7 0.0
31/07:00am 2.6 1.0 2.5 99 0.0 CALM 0 0 0 0 1017.8 1017.5 0.0
31/06:30am 1.0 -1.7 0.6 97 0.2 NW 4 7 2 4 1017.6 1017.3 0.0
31/06:00am 1.3 -0.6 0.7 96 0.2 CALM 0 0 0 0 1017.2 1016.9 0.0
31/05:30am 1.9 0.1 1.5 97 0.2 CALM 0 0 0 0 1017.1 1016.8 0.0
31/05:00am 2.3 0.6 1.7 96 0.2 CALM 0 0 0 0 1017.2 1016.9 0.0
31/04:30am 2.4 0.7 2.0 97 0.2 CALM 0 0 0 0 1017.1 1016.8 0.0
31/04:00am 2.5 0.8 2.1 97 0.2 CALM 0 0 0 0 1017.0 1016.7 0.0
31/03:30am 2.7 1.1 2.3 97 0.2 CALM 0 0 0 0 1017.1 1016.8 0.0
31/03:00am 2.8 1.1 2.1 95 0.3 CALM 0 0 0 0 1017.2 1016.9 0.0
31/02:30am 3.4 1.8 2.5 94 0.4 CALM 0 0 0 0 1017.5 1017.2 0.0
31/02:00am 3.8 2.3 2.9 94 0.4 CALM 0 0 0 0 1017.9 1017.6 0.0
31/01:30am 4.0 2.5 2.8 92 0.5 CALM 0 0 0 0 1018.0 1017.7 0.0
31/01:00am 4.0 2.4 2.7 91 0.5 CALM 0 0 0 0 1018.3 1018.0 0.0
31/12:30am 4.5 2.6 2.8 89 0.7 SSE 2 6 1 3 1018.4 1018.1 0.0
31/12:00am 5.0 2.8 3.3 89 0.7 ESE 4 11 2 6 1018.6 1018.3 0.0
 
Date/Time
EST
Temp
°C
App
Temp
°C
Dew
Point
Rel
Hum
%
Delta-T
°C
Wind Press
QNH
hPa
Press
MSL
hPa
Rain
since 9 am
mm
Dir
 
Spd
km/h
Gust
km/h
Spd
kts
Gust
kts
30/11:30pm 5.7 3.6 3.7 87 0.9 ENE 4 7 2 4 1018.8 1018.5 0.0
30/11:00pm 6.8 5.5 3.9 82 1.3 CALM 0 0 0 0 1019.1 1018.8 0.0
30/10:30pm 6.6 5.3 4.3 85 1.0 CALM 0 4 0 2 1019.0 1018.7 0.0
30/10:00pm 7.8 4.8 4.2 78 1.6 SSW 9 11 5 6 1019.0 1018.7 0.0
30/09:30pm 7.6 5.0 4.4 80 1.4 SW 7 11 4 6 1019.0 1018.7 0.0
30/09:00pm 8.7 6.6 3.7 71 2.2 SSW 4 9 2 5 1019.0 1018.7 0.0
30/08:30pm 8.5 6.9 4.3 75 1.9 ENE 2 7 1 4 1018.8 1018.5 0.0
30/08:00pm 10.3 7.9 4.5 67 2.7 SW 6 9 3 5 1018.3 1018.0 0.0
30/07:30pm 11.8 7.9 3.3 56 3.8 SW 13 17 7 9 1018.0 1017.7 0.0
30/07:00pm 12.7 8.7 3.1 52 4.3 SW 13 17 7 9 1017.6 1017.3 0.0
30/06:30pm 12.9 9.6 2.7 50 4.6 SW 9 13 5 7 1017.4 1017.1 0.0
30/06:00pm 13.7 9.7 2.6 47 5.0 WSW 13 20 7 11 1017.1 1016.8 0.0
30/05:30pm 15.0 9.8 2.2 42 5.8 SW 19 28 10 15 1016.8 1016.5 0.0
30/05:00pm 16.2 10.8 2.6 40 6.3 SW 20 32 11 17 1016.4 1016.0 0.0
30/04:30pm 17.2 12.2 3.5 40 6.5 SW 19 30 10 16 1016.0 1015.7 0.0
30/04:00pm 17.7 12.1 3.6 39 6.7 SW 22 33 12 18 1015.8 1015.5 0.0
30/03:30pm 17.7 11.6 2.5 36 7.1 SW 24 35 13 19 1015.9 1015.6 0.0
30/03:00pm 18.1 11.5 2.0 34 7.5 SW 26 37 14 20 1016.0 1015.7 0.0
30/02:30pm 18.2 12.1 2.9 36 7.2 SW 24 35 13 19 1016.2 1015.9 0.0
30/02:00pm 18.7 12.7 3.3 36 7.4 SW 24 35 13 19 1016.5 1016.1 0.0
30/01:30pm 18.8 14.0 5.6 42 6.6 WSW 20 32 11 17 1016.8 1016.5 0.0
30/01:00pm 18.4 12.9 4.2 39 6.9 WSW 22 32 12 17 1017.1 1016.8 0.0
30/12:30pm 18.2 12.4 4.4 40 6.7 SW 24 35 13 19 1017.5 1017.2 0.0
30/12:00pm 17.8 12.4 4.4 41 6.5 WSW 22 35 12 19 1017.8 1017.5 0.0
30/11:30am 17.9 11.8 4.8 42 6.4 SSW 26 35 14 19 1018.3 1018.0 0.0
30/11:00am 17.4 12.0 4.4 42 6.3 SSW 22 32 12 17 1018.9 1018.6 0.0
30/10:30am 17.6 12.8 5.5 45 6.0 SW 20 32 11 17 1019.2 1018.9 0.0
30/10:00am 16.3 10.9 4.7 46 5.6 S 22 32 12 17 1019.5 1019.2 0.0
30/09:30am 15.9 12.0 6.9 55 4.5 S 17 26 9 14 1019.6 1019.3 0.0
30/09:00am 15.0 10.4 6.3 56 4.3 S 20 24 11 13 1019.7 1019.4 24.0
30/08:30am 14.0 9.8 5.9 58 3.9 S 17 19 9 10 1019.8 1019.5 24.0
30/08:00am 13.2 8.9 6.8 65 3.1 S 19 24 10 13 1019.6 1019.3 24.0
30/07:30am 12.2 9.3 8.1 76 2.1 S 13 17 7 9 1019.5 1019.2 24.0
30/07:00am 10.8 8.7 8.2 84 1.3 SSE 9 13 5 7 1019.1 1018.8 24.0
30/06:30am 10.8 8.3 8.2 84 1.3 S 11 15 6 8 1018.8 1018.5 24.0
30/06:00am 11.1 8.2 8.3 83 1.4 S 13 17 7 9 1018.2 1017.9 24.0
30/05:30am 11.3 9.0 9.0 86 1.2 S 11 15 6 8 1018.3 1018.0 24.0
30/05:00am 11.5 9.1 8.7 83 1.4 SSW 11 17 6 9 1018.5 1018.2 24.0
30/04:30am 12.3 11.2 12.1 99 0.1 SSW 9 13 5 7 1018.0 1017.7 24.0
30/04:00am 12.2 11.5 12.0 99 0.1 S 7 9 4 5 1017.9 1017.6 24.0
30/03:30am 12.1 11.6 11.9 99 0.1 SW 6 7 3 4 1018.2 1017.9 24.0
30/03:00am 12.1 10.6 11.9 99 0.1 SSW 11 13 6 7 1018.1 1017.8 24.0
30/02:30am 12.1 10.2 11.9 99 0.1 SW 13 15 7 8 1018.4 1018.1 24.0
30/02:00am 12.3 11.6 12.1 99 0.1 WSW 7 11 4 6 1018.8 1018.5 24.0
30/01:30am 12.5 12.1 12.3 99 0.1 SW 6 7 3 4 1019.2 1018.9 24.0
30/01:00am 12.6 11.6 12.3 98 0.2 WSW 9 11 5 6 1019.7 1019.4 24.0
30/12:30am 12.4 13.1 12.1 98 0.2 CALM 0 7 0 4 1019.4 1019.1 24.0
30/12:00am 12.3 12.9 12.0 98 0.2 CALM 0 0 0 0 1020.1 1019.8 23.8
 
Date/Time
EST
Temp
°C
App
Temp
°C
Dew
Point
Rel
Hum
%
Delta-T
°C
Wind Press
QNH
hPa
Press
MSL
hPa
Rain
since 9 am
mm
Dir
 
Spd
km/h
Gust
km/h
Spd
kts
Gust
kts
29/11:30pm 12.2 12.7 11.7 97 0.3 CALM 0 0 0 0 1020.4 1020.1 23.8
29/11:00pm 12.2 12.7 11.7 97 0.3 CALM 0 4 0 2 1020.6 1020.3 23.6
29/10:30pm 12.3 11.5 11.8 97 0.3 NW 7 7 4 4 1020.9 1020.7 23.4
29/10:00pm 12.2 12.4 11.7 97 0.3 W 2 7 1 4 1021.0 1020.8 23.4
29/09:30pm 12.1 11.3 11.6 97 0.3 SW 7 9 4 5 1020.7 1020.5 23.2
29/09:00pm 12.2 9.9 11.6 96 0.3 SSW 15 17 8 9 1020.7 1020.5 23.0
29/08:30pm 12.3 11.1 11.7 96 0.3 SW 9 13 5 7 1020.9 1020.7 22.4

Other Formats:

Comma delimited format used in spreadsheet applications
http://www.bom.gov.au/fwo/IDQ60801/IDQ60801.94549.axf

JavaScript Object Notation format (JSON) in row-major order
http://www.bom.gov.au/fwo/IDQ60801/IDQ60801.94549.json